Portada
METAR-TAF:

METAR-TAF

Aeropuertos :

Aeropuerto de Montpellier-Méditerranée

Montpellier, Francia

latitud: 43-35N, longitud: 003-58E, altitud: 5 m

Observación

El informe se hizo hace 20 minutos, a las 13:00 UTC
Viento 3 kt con dirección variable
Temperatura 16°C
Humedad 34%
Presión 1029 hPa
Visibilidad 10 km o más
sin nubes por debajo de 1500 m y sin presencia de cumulonimbus.

METAR: LFMT 031300Z AUTO VRB03KT CAVOK 16/00 Q1029 NOSIG

Hora: 14:20 (13:20 UTC)

Pronóstico

El informe se hizo hace 5 horas y 20 minutos, a las 08:00 UTC
Pronóstico válido del 03 a las 09 UTC al 04 a las 09 UTC
Viento 8 kt del norte-noroeste
Visibilidad 10 km o más
sin nubes por debajo de 1500 m y sin presencia de cumulonimbus.

TAF: LFMT 030800Z 0309/0409 33008KT CAVOK

Observaciones y pronósticos meteorológicos de más de 4000 aeropuertos (mensajes METAR y TAF).

Los puntos amarillos y rojos representan las estaciones disponibles.

Ponga el ratón en el punto deseado para ver el nombre de la estación.

Haga clic para ver las observaciones y los pronósticos meteorológicos.

Para cambiar el mapa : haga clic en los botones verdes con una cruz de color negro para hacer un zoom, en el botón verde con un guión para alejar o en las flechas verdes para mapas adyacentes.


METAR-TAF: